createdAt,value
2019-05-14T00:02:26.262Z,101354.20
2019-05-14T00:04:57.203Z,101345.61
2019-05-14T00:07:28.179Z,101350.28
2019-05-14T00:10:01.075Z,101354.59
2019-05-14T00:12:31.542Z,101352.69
2019-05-14T00:15:02.596Z,101359.09
2019-05-14T00:17:33.430Z,101362.26
2019-05-14T00:20:09.970Z,101365.53
2019-05-14T00:22:41.497Z,101360.28
2019-05-14T00:25:11.862Z,101362.89
2019-05-14T00:27:42.597Z,101363.73
2019-05-14T00:30:13.742Z,101364.16
2019-05-14T00:32:44.395Z,101357.05
2019-05-14T00:35:15.266Z,101357.91
2019-05-14T00:37:46.021Z,101350.12
2019-05-14T01:08:21.638Z,101350.44
2019-05-14T01:11:23.203Z,101353.06
2019-05-14T01:14:21.478Z,101358.63
2019-05-14T01:20:16.890Z,101355.27
2019-05-14T01:23:08.205Z,101364.34
2019-05-14T01:26:02.580Z,101365.56
2019-05-14T01:28:48.616Z,101362.02
2019-05-14T01:31:37.733Z,101351.90
2019-05-14T01:34:14.995Z,101358.16
2019-05-14T01:36:54.289Z,101363.45
2019-05-14T01:39:28.133Z,101354.79
2019-05-14T01:42:12.739Z,101358.96
2019-05-14T01:45:21.112Z,101358.96
2019-05-14T01:48:00.995Z,101367.34
2019-05-14T01:50:32.425Z,101365.67
2019-05-14T01:53:31.007Z,101362.41
2019-05-14T01:56:31.731Z,101366.89
2019-05-14T02:00:43.077Z,101367.41
2019-05-14T02:02:38.932Z,101366.59
2019-05-14T02:05:22.687Z,101363.44
2019-05-14T02:09:16.160Z,101361.91
2019-05-14T02:11:24.242Z,101363.09
2019-05-14T02:14:32.046Z,101364.30
2019-05-14T02:20:42.324Z,101360.21
2019-05-14T02:23:34.808Z,101366.54
2019-05-14T02:26:22.137Z,101365.67
2019-05-14T02:29:18.767Z,101359.17
2019-05-14T02:32:10.419Z,101361.67
2019-05-14T02:34:58.938Z,101355.95
2019-05-14T02:37:41.608Z,101351.41
2019-05-14T02:40:24.750Z,101358.77
2019-05-14T02:53:06.109Z,101346.67
2019-05-14T02:55:39.035Z,101347.45
2019-05-14T02:58:10.105Z,101345.78
2019-05-14T03:00:41.209Z,101342.87
2019-05-14T03:03:12.280Z,101341.87
2019-05-14T03:05:43.236Z,101340.38
2019-05-14T03:08:14.272Z,101333.22
2019-05-14T03:10:45.361Z,101335.26
2019-05-14T03:13:16.206Z,101328.49
2019-05-14T03:15:49.798Z,101327.73
2019-05-14T03:18:20.156Z,101320.17
2019-05-14T03:20:50.708Z,101329.55
2019-05-14T03:23:23.155Z,101327.07
2019-05-14T03:25:54.076Z,101330.68
2019-05-14T03:28:24.933Z,101325.88
2019-05-14T03:31:01.979Z,101329.58
2019-05-14T03:33:33.034Z,101326.65
2019-05-14T03:36:09.297Z,101322.75
2019-05-14T03:38:33.551Z,101330.66
2019-05-14T03:41:04.523Z,101324.74
2019-05-14T03:43:38.928Z,101322.27
2019-05-14T03:46:09.723Z,101327.00
2019-05-14T03:48:40.403Z,101322.95
2019-05-14T03:51:11.319Z,101330.27
2019-05-14T03:53:55.438Z,101335.88
2019-05-14T03:56:14.165Z,101333.75
2019-05-14T03:58:44.994Z,101331.52
2019-05-14T04:01:19.943Z,101330.59
2019-05-14T04:03:50.346Z,101330.84
2019-05-14T04:06:23.291Z,101329.53
2019-05-14T04:08:54.567Z,101335.48
2019-05-14T04:11:29.442Z,101328.37
2019-05-14T04:14:01.485Z,101334.23
2019-05-14T04:16:34.702Z,101330.87
2019-05-14T04:19:09.943Z,101331.64
2019-05-14T04:21:40.948Z,101338.70
2019-05-14T04:24:14.440Z,101343.48
2019-05-14T04:26:58.158Z,101334.70
2019-05-14T04:29:20.952Z,101338.70
2019-05-14T04:31:54.253Z,101342.35
2019-05-14T04:34:25.533Z,101337.63
2019-05-14T04:36:59.278Z,101336.73
2019-05-14T04:39:30.807Z,101343.67
2019-05-14T04:42:01.289Z,101342.97
2019-05-14T04:44:32.447Z,101342.74
2019-05-14T04:47:21.671Z,101340.08
2019-05-14T04:49:35.988Z,101337.16
2019-05-14T04:52:10.100Z,101334.63
2019-05-14T04:54:39.765Z,101333.75
2019-05-14T04:57:10.916Z,101336.39
2019-05-14T04:59:41.968Z,101333.77
2019-05-14T05:02:13.032Z,101328.98
2019-05-14T05:04:43.982Z,101333.22
2019-05-14T05:07:15.049Z,101332.18
2019-05-14T05:09:45.989Z,101331.58
2019-05-14T05:12:19.758Z,101332.62
2019-05-14T05:14:49.602Z,101329.88
2019-05-14T05:17:20.622Z,101331.19
2019-05-14T05:19:51.927Z,101326.98
2019-05-14T05:22:22.946Z,101327.98
2019-05-14T05:24:53.989Z,101323.59
2019-05-14T05:27:24.963Z,101329.02
2019-05-14T05:29:56.112Z,101329.08
2019-05-14T05:32:28.575Z,101337.71
2019-05-14T05:34:59.577Z,101334.86
2019-05-14T05:37:30.519Z,101342.36
2019-05-14T05:40:01.393Z,101343.80
2019-05-14T05:42:32.231Z,101340.21
2019-05-14T05:45:03.089Z,101346.73
2019-05-14T05:47:33.964Z,101336.17
2019-05-14T05:50:08.747Z,101342.05
2019-05-14T05:52:39.392Z,101338.25
2019-05-14T05:55:10.618Z,101337.66
2019-05-14T05:57:42.079Z,101342.43
2019-05-14T06:00:15.443Z,101340.44
2019-05-14T06:02:48.917Z,101337.94
2019-05-14T06:05:19.453Z,101340.31
2019-05-14T06:07:50.429Z,101335.55
2019-05-14T06:10:21.262Z,101334.70
2019-05-14T06:12:53.345Z,101338.45
2019-05-14T06:15:24.423Z,101328.58
2019-05-14T06:18:11.571Z,101336.28
2019-05-14T06:20:30.123Z,101334.41
2019-05-14T06:23:01.288Z,101332.17
2019-05-14T06:25:32.260Z,101335.58
2019-05-14T06:28:03.105Z,101329.23
2019-05-14T06:30:39.341Z,101334.33
2019-05-14T06:33:10.036Z,101334.16
2019-05-14T06:35:41.093Z,101333.20
2019-05-14T06:38:12.353Z,101336.04
2019-05-14T06:40:43.400Z,101339.47
2019-05-14T06:43:14.582Z,101336.15
2019-05-14T06:45:45.520Z,101343.20
2019-05-14T06:48:29.761Z,101336.05
2019-05-14T06:50:50.566Z,101332.67
2019-05-14T06:53:21.265Z,101336.61
2019-05-14T06:55:52.236Z,101342.83
2019-05-14T06:58:24.160Z,101338.48
2019-05-14T07:00:55.077Z,101331.11
2019-05-14T07:03:28.060Z,101332.17
2019-05-14T07:05:59.631Z,101333.13
2019-05-14T07:08:30.503Z,101335.09
2019-05-14T07:11:01.549Z,101331.20
2019-05-14T07:13:32.523Z,101333.91
2019-05-14T07:16:03.695Z,101324.81
2019-05-14T07:18:46.429Z,101324.49
2019-05-14T07:21:08.238Z,101322.36
2019-05-14T07:23:39.099Z,101320.42
2019-05-14T07:26:10.181Z,101313.88
2019-05-14T07:28:42.504Z,101315.28
2019-05-14T07:31:14.448Z,101306.80
2019-05-14T07:33:45.388Z,101303.36
2019-05-14T07:36:18.664Z,101301.09
2019-05-14T07:38:49.272Z,101295.52
2019-05-14T07:41:20.313Z,101291.44
2019-05-14T07:43:51.694Z,101283.39
2019-05-14T07:46:22.959Z,101289.06
2019-05-14T07:49:05.335Z,101284.59
2019-05-14T07:51:28.274Z,101277.81
2019-05-14T07:53:59.702Z,101286.16
2019-05-14T07:56:31.586Z,101289.27
2019-05-14T07:59:02.970Z,101288.05
2019-05-14T08:01:33.926Z,101288.70
2019-05-14T08:04:05.194Z,101291.09
2019-05-14T08:06:36.151Z,101285.16
2019-05-14T08:09:09.750Z,101280.93
2019-05-14T08:11:41.851Z,101281.09
2019-05-14T08:14:13.972Z,101271.91
2019-05-14T08:16:48.701Z,101275.73
2019-05-14T08:19:26.859Z,101272.34
2019-05-14T08:21:51.206Z,101268.97
2019-05-14T08:24:26.997Z,101267.39
2019-05-14T08:26:55.054Z,101263.52
2019-05-14T08:29:28.648Z,101265.34
2019-05-14T08:31:59.320Z,101264.07
2019-05-14T08:34:32.368Z,101269.73
2019-05-14T08:37:04.282Z,101261.00
2019-05-14T08:39:35.362Z,101261.45
2019-05-14T08:42:08.284Z,101262.70
2019-05-14T08:44:39.091Z,101261.15
2019-05-14T08:47:10.000Z,101267.08
2019-05-14T08:49:46.265Z,101268.45
2019-05-14T08:52:16.068Z,101265.23
2019-05-14T08:54:45.836Z,101259.86
2019-05-14T08:57:19.020Z,101258.87
2019-05-14T08:59:49.081Z,101250.58
2019-05-14T09:02:20.024Z,101266.06
2019-05-14T09:04:53.644Z,101258.13
2019-05-14T09:07:23.387Z,101256.31
2019-05-14T09:09:54.333Z,101255.41
2019-05-14T09:12:25.407Z,101255.41
2019-05-14T09:14:56.062Z,101251.33
2019-05-14T09:17:28.923Z,101249.31
2019-05-14T09:20:06.631Z,101241.63
2019-05-14T09:22:32.088Z,101245.39
2019-05-14T09:25:02.927Z,101243.25
2019-05-14T09:27:33.615Z,101243.25
2019-05-14T09:30:05.798Z,101238.95
2019-05-14T09:32:38.860Z,101237.83
2019-05-14T09:35:12.306Z,101232.03
2019-05-14T09:37:43.066Z,101228.64
2019-05-14T09:40:13.783Z,101235.91
2019-05-14T09:42:44.266Z,101239.00
2019-05-14T09:45:14.894Z,101235.12
2019-05-14T09:47:50.291Z,101231.81
2019-05-14T09:50:22.688Z,101243.05
2019-05-14T09:52:50.317Z,101236.02
2019-05-14T09:55:20.905Z,101233.74
2019-05-14T09:57:51.439Z,101232.80
2019-05-14T10:00:22.220Z,101227.89
2019-05-14T10:02:52.771Z,101235.33
2019-05-14T10:05:23.472Z,101240.72
2019-05-14T10:07:53.999Z,101242.30
2019-05-14T10:10:24.583Z,101243.56
2019-05-14T10:12:57.275Z,101240.05
2019-05-14T10:15:28.643Z,101234.94
2019-05-14T10:18:00.540Z,101233.45
2019-05-14T10:20:40.349Z,101225.88
2019-05-14T10:23:03.508Z,101225.88
2019-05-14T10:25:34.083Z,101233.34
2019-05-14T10:28:04.675Z,101228.67
2019-05-14T10:30:35.183Z,101226.97
2019-05-14T10:33:13.862Z,101230.59
2019-05-14T10:35:39.193Z,101230.83
2019-05-14T10:38:10.045Z,101226.00
2019-05-14T10:40:40.650Z,101224.27
2019-05-14T10:43:11.183Z,101224.69
2019-05-14T10:45:41.733Z,101228.13
2019-05-14T10:48:12.289Z,101227.53
2019-05-14T10:50:56.116Z,101221.48
2019-05-14T10:53:15.379Z,101221.40
2019-05-14T10:55:45.954Z,101220.67
2019-05-14T10:58:19.471Z,101225.09
2019-05-14T11:00:49.483Z,101229.19
2019-05-14T11:03:20.174Z,101225.30
2019-05-14T11:05:50.758Z,101228.21
2019-05-14T11:08:21.308Z,101226.05
2019-05-14T11:10:52.044Z,101225.63
2019-05-14T11:13:22.953Z,101224.09
2019-05-14T11:15:53.463Z,101225.28
2019-05-14T11:18:24.015Z,101230.45
2019-05-14T11:20:54.577Z,101231.55
2019-05-14T11:23:25.943Z,101227.83
2019-05-14T11:25:58.166Z,101222.34
2019-05-14T11:28:29.109Z,101216.58
2019-05-14T11:31:00.104Z,101221.45
2019-05-14T11:33:31.558Z,101222.74
2019-05-14T11:36:02.218Z,101221.72
2019-05-14T11:38:37.132Z,101227.16
2019-05-14T11:41:05.199Z,101223.47
2019-05-14T11:43:35.703Z,101224.55
2019-05-14T11:46:08.638Z,101219.46
2019-05-14T11:48:39.276Z,101214.39
2019-05-14T11:51:10.105Z,101209.60
2019-05-14T11:53:40.958Z,101211.09
2019-05-14T11:56:11.594Z,101209.36
2019-05-14T11:58:42.178Z,101207.42
2019-05-14T12:01:12.742Z,101207.22
2019-05-14T12:03:43.274Z,101199.66
2019-05-14T12:06:13.860Z,101206.23
2019-05-14T12:08:44.421Z,101206.67
2019-05-14T12:11:14.966Z,101205.61
2019-05-14T12:13:48.459Z,101199.77
2019-05-14T12:16:17.921Z,101195.69
2019-05-14T12:18:53.816Z,101196.52
2019-05-14T12:21:28.820Z,101200.94
2019-05-14T12:24:04.418Z,101204.75
2019-05-14T12:26:32.001Z,101199.88
2019-05-14T12:29:03.105Z,101201.00
2019-05-14T12:31:33.670Z,101199.25
2019-05-14T12:34:04.479Z,101198.53
2019-05-14T12:36:35.436Z,101197.27
2019-05-14T12:39:09.686Z,101189.69
2019-05-14T12:41:40.427Z,101188.14
2019-05-14T12:44:10.968Z,101187.47
2019-05-14T12:46:41.553Z,101189.77
2019-05-14T12:49:12.108Z,101186.56
2019-05-14T12:51:42.915Z,101189.92
2019-05-14T12:54:14.166Z,101185.86
2019-05-14T12:56:44.699Z,101183.53
2019-05-14T12:59:15.232Z,101181.88
2019-05-14T13:01:45.814Z,101183.36
2019-05-14T13:04:16.346Z,101172.97
2019-05-14T13:06:48.429Z,101177.80
2019-05-14T13:09:21.548Z,101176.19
2019-05-14T13:11:51.319Z,101179.82
2019-05-14T13:14:24.235Z,101185.86
2019-05-14T13:16:55.249Z,101180.54
2019-05-14T13:19:28.095Z,101173.29
2019-05-14T13:22:12.949Z,101175.11
2019-05-14T13:24:31.197Z,101168.48
2019-05-14T13:27:01.750Z,101175.67
2019-05-14T13:29:32.306Z,101166.25
2019-05-14T13:32:02.892Z,101166.47
2019-05-14T13:34:33.569Z,101164.57
2019-05-14T13:37:04.199Z,101172.87
2019-05-14T13:39:34.932Z,101171.20
2019-05-14T13:42:05.937Z,101172.91
2019-05-14T13:44:38.544Z,101167.64
2019-05-14T13:47:09.310Z,101165.37
2019-05-14T13:49:39.957Z,101165.00
2019-05-14T13:52:10.748Z,101157.52
2019-05-14T13:54:41.270Z,101160.84
2019-05-14T13:57:12.297Z,101164.14
2019-05-14T13:59:44.579Z,101161.22
2019-05-14T14:02:15.166Z,101157.42
2019-05-14T14:04:48.113Z,101160.14
2019-05-14T14:07:18.941Z,101162.19
2019-05-14T14:09:50.004Z,101158.18
2019-05-14T14:12:20.609Z,101155.34
2019-05-14T14:14:51.122Z,101156.54
2019-05-14T14:17:21.695Z,101150.00
2019-05-14T14:19:52.247Z,101150.44
2019-05-14T14:22:22.841Z,101145.44
2019-05-14T14:24:53.357Z,101150.59
2019-05-14T14:27:23.925Z,101146.03
2019-05-14T14:29:54.479Z,101150.28
2019-05-14T14:32:25.091Z,101150.34
2019-05-14T14:34:55.835Z,101153.55
2019-05-14T14:37:28.656Z,101152.40
2019-05-14T14:39:59.372Z,101146.17
2019-05-14T14:42:35.247Z,101145.22
2019-05-14T14:45:02.200Z,101148.08
2019-05-14T14:47:32.813Z,101159.55
2019-05-14T14:50:03.761Z,101164.05
2019-05-14T14:52:34.330Z,101165.78
2019-05-14T14:55:05.967Z,101160.14
2019-05-14T14:57:43.787Z,101156.41
2019-05-14T15:00:11.401Z,101157.29
2019-05-14T15:02:42.254Z,101159.55
2019-05-14T15:05:14.537Z,101155.96
2019-05-14T15:07:45.477Z,101151.77
2019-05-14T15:10:15.998Z,101145.41
2019-05-14T15:12:49.386Z,101152.74
2019-05-14T15:15:18.990Z,101154.82
2019-05-14T15:17:49.570Z,101153.14
2019-05-14T15:20:20.062Z,101154.34
2019-05-14T15:22:50.785Z,101163.83
2019-05-14T15:25:21.375Z,101162.19
2019-05-14T15:27:51.986Z,101166.60
2019-05-14T15:30:22.596Z,101170.99
2019-05-14T15:32:53.186Z,101159.51
2019-05-14T15:35:24.632Z,101169.06
2019-05-14T15:37:55.298Z,101166.08
2019-05-14T15:40:28.688Z,101164.52
2019-05-14T15:43:01.619Z,101165.09
2019-05-14T15:45:30.361Z,101164.66
2019-05-14T15:48:03.884Z,101174.41
2019-05-14T15:50:33.114Z,101165.72
2019-05-14T15:53:03.722Z,101180.72
2019-05-14T15:55:34.259Z,101178.48
2019-05-14T15:58:04.817Z,101183.45
2019-05-14T16:00:35.289Z,101176.61
2019-05-14T16:03:08.390Z,101180.11
2019-05-14T16:05:39.377Z,101183.02
2019-05-14T16:08:10.286Z,101178.79
2019-05-14T16:10:40.859Z,101175.23
2019-05-14T16:13:11.408Z,101174.78
2019-05-14T16:15:41.973Z,101175.77
2019-05-14T16:18:18.519Z,101184.58
2019-05-14T16:20:45.226Z,101184.58
2019-05-14T16:23:15.813Z,101186.06
2019-05-14T16:25:48.350Z,101185.39
2019-05-14T16:28:19.557Z,101178.05
2019-05-14T16:30:50.326Z,101180.04
2019-05-14T16:33:20.928Z,101185.64
2019-05-14T16:35:51.440Z,101185.12
2019-05-14T16:38:23.225Z,101187.39
2019-05-14T16:40:53.916Z,101190.50
2019-05-14T16:43:24.525Z,101184.88
2019-05-14T16:45:55.167Z,101183.11
2019-05-14T16:48:25.694Z,101182.58
2019-05-14T16:50:58.300Z,101185.63
2019-05-14T16:53:28.859Z,101187.73
2019-05-14T16:55:59.442Z,101185.25
2019-05-14T16:58:30.019Z,101192.14
2019-05-14T17:01:00.649Z,101190.89
2019-05-14T17:03:31.258Z,101189.14
2019-05-14T17:06:01.725Z,101186.92
2019-05-14T17:08:32.398Z,101185.72
2019-05-14T17:11:02.934Z,101185.40
2019-05-14T17:13:34.145Z,101191.76
2019-05-14T17:16:04.693Z,101188.08
2019-05-14T17:18:35.390Z,101197.55
2019-05-14T17:21:09.236Z,101195.41
2019-05-14T17:23:39.512Z,101209.37
2019-05-14T17:26:10.110Z,101223.83
2019-05-14T17:28:40.915Z,101218.14
2019-05-14T17:31:11.496Z,101216.83
2019-05-14T17:33:42.085Z,101217.08
2019-05-14T17:36:12.750Z,101222.61
2019-05-14T17:38:43.367Z,101227.52
2019-05-14T17:41:13.935Z,101226.64
2019-05-14T17:43:44.481Z,101222.16
2019-05-14T17:46:15.059Z,101222.54
2019-05-14T17:48:45.781Z,101222.37
2019-05-14T17:51:18.064Z,101218.84
2019-05-14T17:53:48.584Z,101218.15
2019-05-14T17:56:22.445Z,101224.39
2019-05-14T17:58:51.443Z,101223.92
2019-05-14T18:01:21.971Z,101228.27
2019-05-14T18:03:52.604Z,101234.41
2019-05-14T18:06:23.103Z,101234.41
2019-05-14T18:08:53.722Z,101234.41
2019-05-14T18:11:24.260Z,101230.88
2019-05-14T18:13:59.021Z,101239.95
2019-05-14T18:16:28.995Z,101244.59
2019-05-14T18:18:59.649Z,101240.83
2019-05-14T18:21:30.211Z,101234.88
2019-05-14T18:24:00.738Z,101238.44
2019-05-14T18:26:31.383Z,101241.47
2019-05-14T18:29:04.516Z,101237.04
2019-05-14T18:31:34.397Z,101239.72
2019-05-14T18:34:04.921Z,101242.43
2019-05-14T18:36:39.672Z,101243.82
2019-05-14T18:39:17.640Z,101234.19
2019-05-14T18:41:49.667Z,101240.13
2019-05-14T18:44:19.591Z,101237.74
2019-05-14T18:46:50.168Z,101239.77
2019-05-14T18:49:20.948Z,101241.04
2019-05-14T18:51:54.574Z,101244.26
2019-05-14T18:54:25.205Z,101245.00
2019-05-14T18:56:55.751Z,101244.22
2019-05-14T18:59:30.546Z,101247.95
2019-05-14T19:01:59.389Z,101245.25
2019-05-14T19:04:30.076Z,101244.81
2019-05-14T19:07:00.632Z,101247.27
2019-05-14T19:09:31.238Z,101249.19
2019-05-14T19:12:01.790Z,101243.03
2019-05-14T19:14:32.518Z,101243.75
2019-05-14T19:17:03.251Z,101239.98
2019-05-14T19:19:38.726Z,101241.27
2019-05-14T19:22:09.361Z,101241.56
2019-05-14T19:24:39.952Z,101231.72
2019-05-14T19:27:10.519Z,101228.83
2019-05-14T19:29:41.134Z,101229.36
2019-05-14T19:32:11.822Z,101233.56
2019-05-14T19:34:45.437Z,101232.16
2019-05-14T19:37:16.099Z,101235.36
2019-05-14T19:39:47.940Z,101235.16
2019-05-14T19:42:18.484Z,101237.08
2019-05-14T19:44:49.071Z,101245.12
2019-05-14T19:47:19.564Z,101240.92
2019-05-14T19:49:51.687Z,101241.32
2019-05-14T19:52:22.316Z,101240.75
2019-05-14T19:54:52.937Z,101240.20
2019-05-14T19:57:23.482Z,101233.61
2019-05-14T19:59:58.439Z,101234.13
2019-05-14T20:02:49.987Z,101237.69
2019-05-14T20:05:39.192Z,101229.41
2019-05-14T20:08:21.505Z,101223.24
2019-05-14T20:10:55.234Z,101226.45
2019-05-14T20:13:28.574Z,101227.28
2019-05-14T20:15:59.229Z,101233.45
2019-05-14T20:18:30.133Z,101231.64
2019-05-14T20:21:00.785Z,101229.65
2019-05-14T20:23:31.348Z,101234.87
2019-05-14T20:26:03.983Z,101233.30
2019-05-14T20:28:34.215Z,101228.66
2019-05-14T20:31:04.801Z,101228.30
2019-05-14T20:33:35.545Z,101222.48
2019-05-14T20:36:08.316Z,101226.80
2019-05-14T20:38:38.904Z,101236.62
2019-05-14T20:41:09.622Z,101237.73
2019-05-14T20:43:40.202Z,101237.73
2019-05-14T20:46:10.774Z,101235.48
2019-05-14T20:48:41.801Z,101233.52
2019-05-14T20:51:12.354Z,101233.75
2019-05-14T20:53:42.975Z,101229.59
2019-05-14T20:56:18.782Z,101232.94
2019-05-14T20:58:48.797Z,101232.17
2019-05-14T21:01:19.396Z,101237.89
2019-05-14T21:03:49.953Z,101241.48
2019-05-14T21:06:20.562Z,101233.72
2019-05-14T21:08:51.132Z,101229.25
2019-05-14T21:11:21.792Z,101237.11
2019-05-14T21:13:52.290Z,101235.64
2019-05-14T21:16:22.810Z,101232.74
2019-05-14T21:18:53.348Z,101236.10
2019-05-14T21:21:24.599Z,101243.48
2019-05-14T21:23:55.268Z,101243.36
2019-05-14T21:26:26.192Z,101246.69
2019-05-14T21:28:58.244Z,101248.81
2019-05-14T21:31:29.114Z,101247.05
2019-05-14T21:33:59.827Z,101244.25
2019-05-14T21:36:30.394Z,101237.39
2019-05-14T21:39:01.496Z,101232.81
2019-05-14T21:41:32.672Z,101243.69
2019-05-14T21:44:03.233Z,101237.78
2019-05-14T21:46:33.907Z,101239.81
2019-05-14T21:49:11.141Z,101240.19
2019-05-14T21:51:43.076Z,101241.97
2019-05-14T21:54:14.140Z,101242.02
2019-05-14T21:56:49.366Z,101239.05
2019-05-14T21:59:19.328Z,101233.12
2019-05-14T22:01:50.237Z,101233.72
2019-05-14T22:04:21.347Z,101228.00
2019-05-14T22:06:51.949Z,101215.69
2019-05-14T22:09:22.787Z,101216.20
2019-05-14T22:11:53.386Z,101221.83
2019-05-14T22:14:23.968Z,101215.77
2019-05-14T22:16:58.391Z,101212.13
2019-05-14T22:19:29.446Z,101215.55
2019-05-14T22:22:00.324Z,101222.70
2019-05-14T22:24:31.038Z,101216.52
2019-05-14T22:27:01.818Z,101217.53
2019-05-14T22:29:32.440Z,101217.69
2019-05-14T22:32:02.978Z,101222.07
2019-05-14T22:34:33.583Z,101217.95
2019-05-14T22:37:04.527Z,101218.20
2019-05-14T22:39:35.011Z,101224.06
2019-05-14T22:42:05.866Z,101222.80
2019-05-14T22:44:36.870Z,101221.19
2019-05-14T22:47:08.138Z,101219.20
2019-05-14T22:49:39.006Z,101227.83
2019-05-14T22:52:10.413Z,101225.80
2019-05-14T22:54:41.356Z,101221.11
2019-05-14T22:57:12.576Z,101220.98
2019-05-14T22:59:43.551Z,101219.59
2019-05-14T23:02:14.676Z,101219.15
2019-05-14T23:04:45.687Z,101226.25
2019-05-14T23:07:16.335Z,101221.44
2019-05-14T23:09:48.244Z,101220.95
2019-05-14T23:12:18.910Z,101219.72
2019-05-14T23:14:49.655Z,101225.30
2019-05-14T23:17:20.270Z,101224.78
2019-05-14T23:19:52.131Z,101222.02
2019-05-14T23:22:22.722Z,101223.79
2019-05-14T23:24:53.278Z,101216.72
2019-05-14T23:27:24.010Z,101222.17
2019-05-14T23:29:54.817Z,101219.63
2019-05-14T23:32:28.382Z,101218.64
2019-05-14T23:35:00.359Z,101214.45
2019-05-14T23:37:31.038Z,101213.57
2019-05-14T23:40:02.080Z,101216.23
2019-05-14T23:42:33.089Z,101217.91
2019-05-14T23:45:04.974Z,101222.34
2019-05-14T23:47:38.325Z,101220.83
2019-05-14T23:50:09.234Z,101227.44
2019-05-14T23:52:41.618Z,101223.77
2019-05-14T23:55:12.803Z,101221.62
2019-05-14T23:57:44.395Z,101227.48
